sensor_id;sensor_type;location;lat;lon;timestamp;P1;durP1;ratioP1;P2;durP2;ratioP2
71125;SDS011;58785;55.566;38.058;2022-07-09T00:00:23;19.27;;;9.73;;
71125;SDS011;58785;55.566;38.058;2022-07-09T00:02:49;21.38;;;10.20;;
71125;SDS011;58785;55.566;38.058;2022-07-09T00:05:14;21.30;;;9.63;;
71125;SDS011;58785;55.566;38.058;2022-07-09T00:07:40;20.52;;;8.35;;
71125;SDS011;58785;55.566;38.058;2022-07-09T00:10:06;19.57;;;8.60;;
71125;SDS011;58785;55.566;38.058;2022-07-09T00:12:32;19.57;;;8.93;;
71125;SDS011;58785;55.566;38.058;2022-07-09T00:14:58;20.90;;;8.95;;
71125;SDS011;58785;55.566;38.058;2022-07-09T00:17:23;17.70;;;9.40;;
71125;SDS011;58785;55.566;38.058;2022-07-09T00:19:51;21.03;;;8.70;;
71125;SDS011;58785;55.566;38.058;2022-07-09T00:22:17;20.67;;;9.00;;
71125;SDS011;58785;55.566;38.058;2022-07-09T00:24:43;21.45;;;9.00;;
71125;SDS011;58785;55.566;38.058;2022-07-09T00:27:08;19.20;;;8.80;;
71125;SDS011;58785;55.566;38.058;2022-07-09T00:29:34;18.40;;;8.10;;
71125;SDS011;58785;55.566;38.058;2022-07-09T00:32:00;18.90;;;10.35;;
71125;SDS011;58785;55.566;38.058;2022-07-09T00:34:26;22.40;;;9.37;;
71125;SDS011;58785;55.566;38.058;2022-07-09T00:36:51;21.65;;;9.40;;
71125;SDS011;58785;55.566;38.058;2022-07-09T00:39:17;20.43;;;9.07;;
71125;SDS011;58785;55.566;38.058;2022-07-09T00:41:43;21.70;;;10.40;;
71125;SDS011;58785;55.566;38.058;2022-07-09T00:44:08;28.27;;;12.47;;
71125;SDS011;58785;55.566;38.058;2022-07-09T00:46:34;30.23;;;11.95;;
71125;SDS011;58785;55.566;38.058;2022-07-09T00:49:00;34.43;;;12.53;;
71125;SDS011;58785;55.566;38.058;2022-07-09T00:51:31;29.52;;;12.57;;
71125;SDS011;58785;55.566;38.058;2022-07-09T00:53:57;27.08;;;13.18;;
71125;SDS011;58785;55.566;38.058;2022-07-09T00:56:25;25.85;;;12.73;;
71125;SDS011;58785;55.566;38.058;2022-07-09T00:58:52;24.77;;;12.47;;
71125;SDS011;58785;55.566;38.058;2022-07-09T01:01:18;30.60;;;13.75;;
71125;SDS011;58785;55.566;38.058;2022-07-09T01:03:44;26.97;;;12.70;;
71125;SDS011;58785;55.566;38.058;2022-07-09T01:06:09;25.92;;;12.10;;
71125;SDS011;58785;55.566;38.058;2022-07-09T01:08:35;25.80;;;12.00;;
71125;SDS011;58785;55.566;38.058;2022-07-09T01:11:03;27.92;;;13.40;;
71125;SDS011;58785;55.566;38.058;2022-07-09T01:13:29;26.48;;;13.35;;
71125;SDS011;58785;55.566;38.058;2022-07-09T01:15:54;26.37;;;13.10;;
71125;SDS011;58785;55.566;38.058;2022-07-09T01:18:20;26.75;;;12.68;;
71125;SDS011;58785;55.566;38.058;2022-07-09T01:20:46;26.27;;;13.13;;
71125;SDS011;58785;55.566;38.058;2022-07-09T01:23:11;30.23;;;12.85;;
71125;SDS011;58785;55.566;38.058;2022-07-09T01:25:45;27.73;;;13.00;;
71125;SDS011;58785;55.566;38.058;2022-07-09T01:28:11;27.30;;;13.20;;
71125;SDS011;58785;55.566;38.058;2022-07-09T01:30:38;26.88;;;12.75;;
71125;SDS011;58785;55.566;38.058;2022-07-09T01:33:04;23.80;;;12.55;;
71125;SDS011;58785;55.566;38.058;2022-07-09T01:35:31;23.30;;;11.75;;
71125;SDS011;58785;55.566;38.058;2022-07-09T01:37:56;22.83;;;11.73;;
71125;SDS011;58785;55.566;38.058;2022-07-09T01:40:22;23.77;;;13.20;;
71125;SDS011;58785;55.566;38.058;2022-07-09T01:42:48;26.60;;;12.23;;
71125;SDS011;58785;55.566;38.058;2022-07-09T01:45:15;22.53;;;12.70;;
71125;SDS011;58785;55.566;38.058;2022-07-09T01:47:41;22.75;;;12.27;;
71125;SDS011;58785;55.566;38.058;2022-07-09T01:50:07;29.73;;;13.25;;
71125;SDS011;58785;55.566;38.058;2022-07-09T01:52:34;33.75;;;12.90;;
71125;SDS011;58785;55.566;38.058;2022-07-09T01:55:00;31.95;;;13.65;;
71125;SDS011;58785;55.566;38.058;2022-07-09T01:57:26;37.87;;;13.30;;
71125;SDS011;58785;55.566;38.058;2022-07-09T01:59:52;30.75;;;12.75;;
71125;SDS011;58785;55.566;38.058;2022-07-09T02:02:20;26.50;;;13.05;;
71125;SDS011;58785;55.566;38.058;2022-07-09T02:04:46;27.50;;;12.87;;
71125;SDS011;58785;55.566;38.058;2022-07-09T02:07:13;24.33;;;12.70;;
71125;SDS011;58785;55.566;38.058;2022-07-09T02:09:39;26.25;;;13.90;;
71125;SDS011;58785;55.566;38.058;2022-07-09T02:12:06;26.05;;;13.85;;
71125;SDS011;58785;55.566;38.058;2022-07-09T02:14:31;22.50;;;13.87;;
71125;SDS011;58785;55.566;38.058;2022-07-09T02:16:57;23.98;;;14.70;;
71125;SDS011;58785;55.566;38.058;2022-07-09T02:19:23;24.27;;;14.83;;
71125;SDS011;58785;55.566;38.058;2022-07-09T02:21:48;26.60;;;16.02;;
71125;SDS011;58785;55.566;38.058;2022-07-09T02:24:14;29.43;;;17.27;;
71125;SDS011;58785;55.566;38.058;2022-07-09T02:26:40;28.73;;;17.25;;
71125;SDS011;58785;55.566;38.058;2022-07-09T02:29:06;32.67;;;19.00;;
71125;SDS011;58785;55.566;38.058;2022-07-09T02:31:32;35.88;;;20.40;;
71125;SDS011;58785;55.566;38.058;2022-07-09T02:33:58;32.37;;;19.83;;
71125;SDS011;58785;55.566;38.058;2022-07-09T02:36:24;33.22;;;19.95;;
71125;SDS011;58785;55.566;38.058;2022-07-09T02:38:50;34.67;;;19.10;;
71125;SDS011;58785;55.566;38.058;2022-07-09T02:41:16;31.70;;;19.20;;
71125;SDS011;58785;55.566;38.058;2022-07-09T02:43:41;29.35;;;18.60;;
71125;SDS011;58785;55.566;38.058;2022-07-09T02:46:10;29.90;;;19.27;;
71125;SDS011;58785;55.566;38.058;2022-07-09T02:48:36;30.55;;;18.23;;
71125;SDS011;58785;55.566;38.058;2022-07-09T02:51:03;35.70;;;18.98;;
71125;SDS011;58785;55.566;38.058;2022-07-09T02:53:29;29.75;;;18.55;;
71125;SDS011;58785;55.566;38.058;2022-07-09T02:55:54;30.17;;;18.47;;
71125;SDS011;58785;55.566;38.058;2022-07-09T02:58:20;29.33;;;18.27;;
71125;SDS011;58785;55.566;38.058;2022-07-09T03:00:46;30.73;;;18.87;;
71125;SDS011;58785;55.566;38.058;2022-07-09T03:03:12;28.97;;;18.03;;
71125;SDS011;58785;55.566;38.058;2022-07-09T03:05:37;28.60;;;18.33;;
71125;SDS011;58785;55.566;38.058;2022-07-09T03:08:03;31.53;;;18.27;;
71125;SDS011;58785;55.566;38.058;2022-07-09T03:10:29;32.90;;;17.92;;
71125;SDS011;58785;55.566;38.058;2022-07-09T03:12:54;32.83;;;18.70;;
71125;SDS011;58785;55.566;38.058;2022-07-09T03:15:20;28.35;;;18.90;;
71125;SDS011;58785;55.566;38.058;2022-07-09T03:17:46;31.60;;;18.23;;
71125;SDS011;58785;55.566;38.058;2022-07-09T03:20:13;32.03;;;17.65;;
71125;SDS011;58785;55.566;38.058;2022-07-09T03:22:40;33.17;;;18.52;;
71125;SDS011;58785;55.566;38.058;2022-07-09T03:25:07;34.40;;;19.40;;
71125;SDS011;58785;55.566;38.058;2022-07-09T03:27:34;33.00;;;20.07;;
71125;SDS011;58785;55.566;38.058;2022-07-09T03:30:00;30.60;;;19.35;;
71125;SDS011;58785;55.566;38.058;2022-07-09T03:32:30;42.38;;;20.33;;
71125;SDS011;58785;55.566;38.058;2022-07-09T03:34:55;34.35;;;19.50;;
71125;SDS011;58785;55.566;38.058;2022-07-09T03:37:21;32.73;;;18.50;;
71125;SDS011;58785;55.566;38.058;2022-07-09T03:39:47;32.58;;;18.98;;
71125;SDS011;58785;55.566;38.058;2022-07-09T03:42:13;33.47;;;19.63;;
71125;SDS011;58785;55.566;38.058;2022-07-09T03:44:39;28.77;;;17.93;;
71125;SDS011;58785;55.566;38.058;2022-07-09T03:47:05;32.28;;;18.20;;
71125;SDS011;58785;55.566;38.058;2022-07-09T03:49:32;35.90;;;18.98;;
71125;SDS011;58785;55.566;38.058;2022-07-09T03:51:58;30.10;;;18.23;;
71125;SDS011;58785;55.566;38.058;2022-07-09T03:54:24;27.20;;;16.43;;
71125;SDS011;58785;55.566;38.058;2022-07-09T03:56:50;27.57;;;16.50;;
71125;SDS011;58785;55.566;38.058;2022-07-09T03:59:16;34.65;;;17.83;;
71125;SDS011;58785;55.566;38.058;2022-07-09T04:01:42;26.92;;;16.70;;
71125;SDS011;58785;55.566;38.058;2022-07-09T04:04:08;27.75;;;16.83;;
71125;SDS011;58785;55.566;38.058;2022-07-09T04:06:33;27.60;;;17.03;;
71125;SDS011;58785;55.566;38.058;2022-07-09T04:09:00;27.50;;;17.42;;
71125;SDS011;58785;55.566;38.058;2022-07-09T04:11:31;26.17;;;17.92;;
71125;SDS011;58785;55.566;38.058;2022-07-09T04:14:01;30.15;;;18.33;;
71125;SDS011;58785;55.566;38.058;2022-07-09T04:16:28;26.43;;;17.03;;
71125;SDS011;58785;55.566;38.058;2022-07-09T04:18:54;26.40;;;17.30;;
71125;SDS011;58785;55.566;38.058;2022-07-09T04:21:20;24.95;;;17.75;;
71125;SDS011;58785;55.566;38.058;2022-07-09T04:23:49;27.83;;;17.08;;
71125;SDS011;58785;55.566;38.058;2022-07-09T04:26:16;28.63;;;17.25;;
71125;SDS011;58785;55.566;38.058;2022-07-09T04:28:44;29.02;;;17.70;;
71125;SDS011;58785;55.566;38.058;2022-07-09T04:31:10;28.07;;;16.70;;
71125;SDS011;58785;55.566;38.058;2022-07-09T04:33:36;27.98;;;16.38;;
71125;SDS011;58785;55.566;38.058;2022-07-09T04:36:01;24.53;;;15.87;;
71125;SDS011;58785;55.566;38.058;2022-07-09T04:38:29;23.95;;;15.95;;
71125;SDS011;58785;55.566;38.058;2022-07-09T04:40:56;24.48;;;16.30;;
71125;SDS011;58785;55.566;38.058;2022-07-09T04:43:21;23.05;;;15.93;;
71125;SDS011;58785;55.566;38.058;2022-07-09T04:45:47;26.00;;;16.43;;
71125;SDS011;58785;55.566;38.058;2022-07-09T04:48:13;24.83;;;17.25;;
71125;SDS011;58785;55.566;38.058;2022-07-09T04:50:38;26.73;;;16.70;;
71125;SDS011;58785;55.566;38.058;2022-07-09T04:53:04;29.43;;;16.40;;
71125;SDS011;58785;55.566;38.058;2022-07-09T04:55:29;22.95;;;15.45;;
71125;SDS011;58785;55.566;38.058;2022-07-09T04:57:55;22.80;;;15.27;;
71125;SDS011;58785;55.566;38.058;2022-07-09T05:00:21;26.73;;;15.60;;
71125;SDS011;58785;55.566;38.058;2022-07-09T05:02:46;28.40;;;15.83;;
71125;SDS011;58785;55.566;38.058;2022-07-09T05:05:12;23.35;;;14.80;;
71125;SDS011;58785;55.566;38.058;2022-07-09T05:07:39;24.05;;;15.50;;
71125;SDS011;58785;55.566;38.058;2022-07-09T05:10:06;24.10;;;14.95;;
71125;SDS011;58785;55.566;38.058;2022-07-09T05:12:32;24.03;;;14.07;;
71125;SDS011;58785;55.566;38.058;2022-07-09T05:14:58;18.20;;;11.43;;
71125;SDS011;58785;55.566;38.058;2022-07-09T05:17:24;19.13;;;10.17;;
71125;SDS011;58785;55.566;38.058;2022-07-09T05:19:50;17.80;;;10.38;;
71125;SDS011;58785;55.566;38.058;2022-07-09T05:22:15;15.48;;;9.38;;
71125;SDS011;58785;55.566;38.058;2022-07-09T05:24:41;12.83;;;8.33;;
71125;SDS011;58785;55.566;38.058;2022-07-09T05:27:07;12.90;;;7.97;;
71125;SDS011;58785;55.566;38.058;2022-07-09T05:29:35;15.57;;;8.13;;
71125;SDS011;58785;55.566;38.058;2022-07-09T05:32:01;11.75;;;7.07;;
71125;SDS011;58785;55.566;38.058;2022-07-09T05:34:28;15.35;;;8.82;;
71125;SDS011;58785;55.566;38.058;2022-07-09T05:36:54;13.97;;;9.03;;
71125;SDS011;58785;55.566;38.058;2022-07-09T05:39:23;14.25;;;8.38;;
71125;SDS011;58785;55.566;38.058;2022-07-09T05:41:49;17.27;;;8.13;;
71125;SDS011;58785;55.566;38.058;2022-07-09T05:44:15;16.73;;;9.37;;
71125;SDS011;58785;55.566;38.058;2022-07-09T05:46:40;16.05;;;9.20;;
71125;SDS011;58785;55.566;38.058;2022-07-09T05:49:06;15.47;;;8.73;;
71125;SDS011;58785;55.566;38.058;2022-07-09T05:51:32;16.07;;;8.97;;
71125;SDS011;58785;55.566;38.058;2022-07-09T05:53:58;17.23;;;9.40;;
71125;SDS011;58785;55.566;38.058;2022-07-09T05:56:24;14.88;;;8.85;;
71125;SDS011;58785;55.566;38.058;2022-07-09T05:58:51;19.33;;;8.15;;
71125;SDS011;58785;55.566;38.058;2022-07-09T06:01:16;13.87;;;7.43;;
71125;SDS011;58785;55.566;38.058;2022-07-09T06:03:42;11.88;;;7.70;;
71125;SDS011;58785;55.566;38.058;2022-07-09T06:06:08;16.70;;;11.73;;
71125;SDS011;58785;55.566;38.058;2022-07-09T06:08:35;19.70;;;12.63;;
71125;SDS011;58785;55.566;38.058;2022-07-09T06:11:00;19.63;;;12.85;;
71125;SDS011;58785;55.566;38.058;2022-07-09T06:13:27;17.42;;;11.18;;
71125;SDS011;58785;55.566;38.058;2022-07-09T06:15:52;16.25;;;9.55;;
71125;SDS011;58785;55.566;38.058;2022-07-09T06:18:18;17.37;;;9.30;;
71125;SDS011;58785;55.566;38.058;2022-07-09T06:20:44;15.85;;;9.75;;
71125;SDS011;58785;55.566;38.058;2022-07-09T06:23:11;19.52;;;9.25;;
71125;SDS011;58785;55.566;38.058;2022-07-09T06:25:37;12.57;;;7.57;;
71125;SDS011;58785;55.566;38.058;2022-07-09T06:28:03;15.37;;;8.30;;
71125;SDS011;58785;55.566;38.058;2022-07-09T06:30:30;16.93;;;9.67;;
71125;SDS011;58785;55.566;38.058;2022-07-09T06:32:56;14.75;;;7.82;;
71125;SDS011;58785;55.566;38.058;2022-07-09T06:35:22;10.15;;;6.45;;
71125;SDS011;58785;55.566;38.058;2022-07-09T06:37:47;12.83;;;7.93;;
71125;SDS011;58785;55.566;38.058;2022-07-09T06:40:13;12.63;;;7.20;;
71125;SDS011;58785;55.566;38.058;2022-07-09T06:42:38;10.57;;;6.87;;
71125;SDS011;58785;55.566;38.058;2022-07-09T06:45:04;10.18;;;6.72;;
71125;SDS011;58785;55.566;38.058;2022-07-09T06:47:31;10.70;;;6.07;;
71125;SDS011;58785;55.566;38.058;2022-07-09T06:49:57;10.57;;;6.53;;
71125;SDS011;58785;55.566;38.058;2022-07-09T06:52:22;9.55;;;5.63;;
71125;SDS011;58785;55.566;38.058;2022-07-09T06:54:48;9.83;;;6.13;;
71125;SDS011;58785;55.566;38.058;2022-07-09T06:57:14;10.77;;;6.87;;
71125;SDS011;58785;55.566;38.058;2022-07-09T06:59:42;11.15;;;6.93;;
71125;SDS011;58785;55.566;38.058;2022-07-09T07:02:08;11.35;;;6.25;;
71125;SDS011;58785;55.566;38.058;2022-07-09T07:04:35;11.02;;;5.63;;
71125;SDS011;58785;55.566;38.058;2022-07-09T07:07:01;11.83;;;6.23;;
71125;SDS011;58785;55.566;38.058;2022-07-09T07:09:27;9.70;;;6.00;;
71125;SDS011;58785;55.566;38.058;2022-07-09T07:11:53;9.20;;;6.05;;
71125;SDS011;58785;55.566;38.058;2022-07-09T07:14:19;8.53;;;5.20;;
71125;SDS011;58785;55.566;38.058;2022-07-09T07:16:45;9.10;;;5.03;;
71125;SDS011;58785;55.566;38.058;2022-07-09T07:19:10;10.20;;;6.60;;
71125;SDS011;58785;55.566;38.058;2022-07-09T07:21:37;11.60;;;6.55;;
71125;SDS011;58785;55.566;38.058;2022-07-09T07:24:04;9.70;;;5.37;;
71125;SDS011;58785;55.566;38.058;2022-07-09T07:26:30;14.90;;;7.70;;
71125;SDS011;58785;55.566;38.058;2022-07-09T07:28:56;8.85;;;5.22;;
71125;SDS011;58785;55.566;38.058;2022-07-09T07:31:23;11.25;;;5.93;;
71125;SDS011;58785;55.566;38.058;2022-07-09T07:33:50;7.55;;;4.68;;
71125;SDS011;58785;55.566;38.058;2022-07-09T07:36:16;8.63;;;5.22;;
71125;SDS011;58785;55.566;38.058;2022-07-09T07:38:42;10.27;;;5.33;;
71125;SDS011;58785;55.566;38.058;2022-07-09T07:41:07;9.07;;;5.67;;
71125;SDS011;58785;55.566;38.058;2022-07-09T07:43:33;10.87;;;5.53;;
71125;SDS011;58785;55.566;38.058;2022-07-09T07:45:58;8.60;;;5.75;;
71125;SDS011;58785;55.566;38.058;2022-07-09T07:48:24;9.60;;;5.13;;
71125;SDS011;58785;55.566;38.058;2022-07-09T07:50:53;8.48;;;5.88;;
71125;SDS011;58785;55.566;38.058;2022-07-09T07:53:20;8.07;;;5.40;;
71125;SDS011;58785;55.566;38.058;2022-07-09T07:55:45;9.18;;;5.57;;
71125;SDS011;58785;55.566;38.058;2022-07-09T07:58:11;8.27;;;5.93;;
71125;SDS011;58785;55.566;38.058;2022-07-09T08:00:37;9.57;;;5.87;;
71125;SDS011;58785;55.566;38.058;2022-07-09T08:03:02;8.93;;;5.47;;
71125;SDS011;58785;55.566;38.058;2022-07-09T08:05:28;8.40;;;5.65;;
71125;SDS011;58785;55.566;38.058;2022-07-09T08:07:54;8.13;;;5.57;;
71125;SDS011;58785;55.566;38.058;2022-07-09T08:10:22;9.73;;;6.30;;
71125;SDS011;58785;55.566;38.058;2022-07-09T08:12:49;8.18;;;4.90;;
71125;SDS011;58785;55.566;38.058;2022-07-09T08:15:15;9.70;;;5.57;;
71125;SDS011;58785;55.566;38.058;2022-07-09T08:17:40;9.63;;;5.23;;
71125;SDS011;58785;55.566;38.058;2022-07-09T08:20:06;11.40;;;5.55;;
71125;SDS011;58785;55.566;38.058;2022-07-09T08:22:32;18.10;;;6.30;;
71125;SDS011;58785;55.566;38.058;2022-07-09T08:24:57;12.80;;;5.78;;
71125;SDS011;58785;55.566;38.058;2022-07-09T08:27:23;8.03;;;4.80;;
71125;SDS011;58785;55.566;38.058;2022-07-09T08:29:49;8.48;;;4.82;;
71125;SDS011;58785;55.566;38.058;2022-07-09T08:32:15;12.97;;;5.93;;
71125;SDS011;58785;55.566;38.058;2022-07-09T08:34:41;11.63;;;7.03;;
71125;SDS011;58785;55.566;38.058;2022-07-09T08:37:06;10.95;;;7.15;;
71125;SDS011;58785;55.566;38.058;2022-07-09T08:39:32;12.70;;;8.00;;
71125;SDS011;58785;55.566;38.058;2022-07-09T08:41:58;12.80;;;8.18;;
71125;SDS011;58785;55.566;38.058;2022-07-09T08:44:30;14.07;;;8.80;;
71125;SDS011;58785;55.566;38.058;2022-07-09T08:47:00;15.23;;;9.20;;
71125;SDS011;58785;55.566;38.058;2022-07-09T08:49:26;14.00;;;8.90;;
71125;SDS011;58785;55.566;38.058;2022-07-09T08:51:53;15.70;;;9.65;;
71125;SDS011;58785;55.566;38.058;2022-07-09T08:54:21;13.77;;;8.77;;
71125;SDS011;58785;55.566;38.058;2022-07-09T08:56:47;16.52;;;8.68;;
71125;SDS011;58785;55.566;38.058;2022-07-09T08:59:15;13.80;;;9.07;;
71125;SDS011;58785;55.566;38.058;2022-07-09T09:01:41;13.63;;;8.77;;
71125;SDS011;58785;55.566;38.058;2022-07-09T09:04:06;13.13;;;8.80;;
71125;SDS011;58785;55.566;38.058;2022-07-09T09:06:37;11.55;;;8.60;;
71125;SDS011;58785;55.566;38.058;2022-07-09T09:09:07;15.25;;;9.48;;
71125;SDS011;58785;55.566;38.058;2022-07-09T09:11:33;14.00;;;9.35;;
71125;SDS011;58785;55.566;38.058;2022-07-09T09:14:01;16.02;;;8.95;;
71125;SDS011;58785;55.566;38.058;2022-07-09T09:16:28;14.27;;;9.23;;
71125;SDS011;58785;55.566;38.058;2022-07-09T09:18:54;12.13;;;8.88;;
71125;SDS011;58785;55.566;38.058;2022-07-09T09:21:22;15.95;;;8.93;;
71125;SDS011;58785;55.566;38.058;2022-07-09T09:23:52;12.30;;;8.10;;
71125;SDS011;58785;55.566;38.058;2022-07-09T09:26:20;12.75;;;8.35;;
71125;SDS011;58785;55.566;38.058;2022-07-09T09:28:54;13.23;;;8.33;;
71125;SDS011;58785;55.566;38.058;2022-07-09T09:31:20;12.20;;;7.90;;
71125;SDS011;58785;55.566;38.058;2022-07-09T09:33:46;16.00;;;9.98;;
71125;SDS011;58785;55.566;38.058;2022-07-09T09:36:25;14.52;;;8.93;;
71125;SDS011;58785;55.566;38.058;2022-07-09T09:38:52;12.45;;;8.25;;
71125;SDS011;58785;55.566;38.058;2022-07-09T09:41:22;15.47;;;10.23;;
71125;SDS011;58785;55.566;38.058;2022-07-09T09:43:48;14.98;;;9.13;;
71125;SDS011;58785;55.566;38.058;2022-07-09T09:46:14;15.02;;;9.48;;
71125;SDS011;58785;55.566;38.058;2022-07-09T09:48:42;16.60;;;10.27;;
71125;SDS011;58785;55.566;38.058;2022-07-09T09:51:09;15.43;;;8.88;;
71125;SDS011;58785;55.566;38.058;2022-07-09T09:53:36;16.53;;;8.50;;
71125;SDS011;58785;55.566;38.058;2022-07-09T09:56:03;15.63;;;9.40;;
71125;SDS011;58785;55.566;38.058;2022-07-09T09:58:30;17.83;;;9.10;;
71125;SDS011;58785;55.566;38.058;2022-07-09T10:00:56;14.65;;;9.77;;
71125;SDS011;58785;55.566;38.058;2022-07-09T10:03:22;19.50;;;11.30;;
71125;SDS011;58785;55.566;38.058;2022-07-09T10:05:48;17.57;;;10.60;;
71125;SDS011;58785;55.566;38.058;2022-07-09T10:08:16;17.50;;;9.55;;
71125;SDS011;58785;55.566;38.058;2022-07-09T10:10:49;18.80;;;9.50;;
71125;SDS011;58785;55.566;38.058;2022-07-09T10:13:20;18.38;;;9.90;;
71125;SDS011;58785;55.566;38.058;2022-07-09T10:15:56;16.20;;;9.18;;
71125;SDS011;58785;55.566;38.058;2022-07-09T10:18:21;13.85;;;8.95;;
71125;SDS011;58785;55.566;38.058;2022-07-09T10:20:47;17.57;;;9.20;;
71125;SDS011;58785;55.566;38.058;2022-07-09T10:23:21;17.98;;;8.98;;
71125;SDS011;58785;55.566;38.058;2022-07-09T10:25:49;15.68;;;8.73;;
71125;SDS011;58785;55.566;38.058;2022-07-09T10:28:18;13.07;;;8.03;;
71125;SDS011;58785;55.566;38.058;2022-07-09T10:30:45;16.88;;;8.48;;
71125;SDS011;58785;55.566;38.058;2022-07-09T10:33:12;13.63;;;8.60;;
71125;SDS011;58785;55.566;38.058;2022-07-09T10:35:51;12.98;;;7.70;;
71125;SDS011;58785;55.566;38.058;2022-07-09T10:38:18;11.30;;;7.55;;
71125;SDS011;58785;55.566;38.058;2022-07-09T10:40:48;10.57;;;6.77;;
71125;SDS011;58785;55.566;38.058;2022-07-09T10:43:40;11.10;;;6.50;;
71125;SDS011;58785;55.566;38.058;2022-07-09T10:46:09;13.43;;;6.95;;
71125;SDS011;58785;55.566;38.058;2022-07-09T10:48:45;11.05;;;6.60;;
71125;SDS011;58785;55.566;38.058;2022-07-09T10:51:18;15.75;;;6.00;;
71125;SDS011;58785;55.566;38.058;2022-07-09T10:53:45;9.17;;;5.77;;
71125;SDS011;58785;55.566;38.058;2022-07-09T10:56:11;10.65;;;6.47;;
71125;SDS011;58785;55.566;38.058;2022-07-09T10:58:41;8.57;;;5.20;;
71125;SDS011;58785;55.566;38.058;2022-07-09T11:01:17;13.32;;;5.60;;
71125;SDS011;58785;55.566;38.058;2022-07-09T11:03:48;8.52;;;4.53;;
71125;SDS011;58785;55.566;38.058;2022-07-09T11:06:15;8.20;;;4.00;;
71125;SDS011;58785;55.566;38.058;2022-07-09T11:08:41;7.73;;;4.20;;
71125;SDS011;58785;55.566;38.058;2022-07-09T11:11:06;7.93;;;5.03;;
71125;SDS011;58785;55.566;38.058;2022-07-09T11:13:32;7.07;;;4.30;;
71125;SDS011;58785;55.566;38.058;2022-07-09T11:15:59;7.30;;;4.40;;
71125;SDS011;58785;55.566;38.058;2022-07-09T11:18:28;8.10;;;4.93;;
71125;SDS011;58785;55.566;38.058;2022-07-09T11:20:55;8.88;;;5.50;;
71125;SDS011;58785;55.566;38.058;2022-07-09T11:23:21;8.18;;;4.57;;
71125;SDS011;58785;55.566;38.058;2022-07-09T11:25:46;7.83;;;5.10;;
71125;SDS011;58785;55.566;38.058;2022-07-09T11:28:19;8.00;;;5.38;;
71125;SDS011;58785;55.566;38.058;2022-07-09T11:30:46;8.25;;;4.97;;
71125;SDS011;58785;55.566;38.058;2022-07-09T11:33:26;8.27;;;5.23;;
71125;SDS011;58785;55.566;38.058;2022-07-09T11:35:52;8.73;;;6.07;;
71125;SDS011;58785;55.566;38.058;2022-07-09T11:38:18;10.75;;;5.85;;
71125;SDS011;58785;55.566;38.058;2022-07-09T11:40:44;10.23;;;6.23;;
71125;SDS011;58785;55.566;38.058;2022-07-09T11:43:13;9.57;;;5.70;;
71125;SDS011;58785;55.566;38.058;2022-07-09T11:45:40;9.57;;;5.70;;
71125;SDS011;58785;55.566;38.058;2022-07-09T11:48:16;8.25;;;6.10;;
71125;SDS011;58785;55.566;38.058;2022-07-09T11:50:43;8.90;;;5.70;;
71125;SDS011;58785;55.566;38.058;2022-07-09T11:53:20;9.95;;;5.47;;
71125;SDS011;58785;55.566;38.058;2022-07-09T11:55:57;9.25;;;5.07;;
71125;SDS011;58785;55.566;38.058;2022-07-09T11:58:24;8.53;;;4.40;;
71125;SDS011;58785;55.566;38.058;2022-07-09T12:00:50;8.30;;;4.63;;
71125;SDS011;58785;55.566;38.058;2022-07-09T12:03:22;7.70;;;4.90;;
71125;SDS011;58785;55.566;38.058;2022-07-09T12:05:49;9.43;;;4.82;;
71125;SDS011;58785;55.566;38.058;2022-07-09T12:08:25;8.77;;;5.05;;
71125;SDS011;58785;55.566;38.058;2022-07-09T12:10:53;8.38;;;4.85;;
71125;SDS011;58785;55.566;38.058;2022-07-09T12:13:19;8.43;;;4.80;;
71125;SDS011;58785;55.566;38.058;2022-07-09T12:15:44;8.63;;;5.23;;
71125;SDS011;58785;55.566;38.058;2022-07-09T12:18:10;7.37;;;4.70;;
71125;SDS011;58785;55.566;38.058;2022-07-09T12:20:36;7.80;;;4.85;;
71125;SDS011;58785;55.566;38.058;2022-07-09T12:23:02;8.05;;;5.18;;
71125;SDS011;58785;55.566;38.058;2022-07-09T12:25:27;8.80;;;5.67;;
71125;SDS011;58785;55.566;38.058;2022-07-09T12:27:53;8.80;;;5.63;;
71125;SDS011;58785;55.566;38.058;2022-07-09T12:30:19;8.70;;;4.90;;
71125;SDS011;58785;55.566;38.058;2022-07-09T12:32:45;8.70;;;4.68;;
71125;SDS011;58785;55.566;38.058;2022-07-09T12:35:12;9.15;;;6.03;;
71125;SDS011;58785;55.566;38.058;2022-07-09T12:37:38;7.90;;;5.40;;
71125;SDS011;58785;55.566;38.058;2022-07-09T12:40:05;8.05;;;5.20;;
71125;SDS011;58785;55.566;38.058;2022-07-09T12:42:32;8.27;;;5.67;;
71125;SDS011;58785;55.566;38.058;2022-07-09T12:44:59;8.87;;;4.93;;
71125;SDS011;58785;55.566;38.058;2022-07-09T12:47:26;8.32;;;4.85;;
71125;SDS011;58785;55.566;38.058;2022-07-09T12:49:52;7.15;;;4.63;;
71125;SDS011;58785;55.566;38.058;2022-07-09T12:52:17;8.95;;;5.72;;
71125;SDS011;58785;55.566;38.058;2022-07-09T12:54:43;10.60;;;5.27;;
71125;SDS011;58785;55.566;38.058;2022-07-09T12:57:09;9.40;;;5.25;;
71125;SDS011;58785;55.566;38.058;2022-07-09T12:59:35;7.77;;;4.67;;
71125;SDS011;58785;55.566;38.058;2022-07-09T13:02:01;7.95;;;4.72;;
71125;SDS011;58785;55.566;38.058;2022-07-09T13:04:27;7.43;;;4.00;;
71125;SDS011;58785;55.566;38.058;2022-07-09T13:06:52;6.20;;;3.70;;
71125;SDS011;58785;55.566;38.058;2022-07-09T13:09:18;6.82;;;4.25;;
71125;SDS011;58785;55.566;38.058;2022-07-09T13:11:44;8.93;;;4.75;;
71125;SDS011;58785;55.566;38.058;2022-07-09T13:14:13;8.35;;;5.00;;
71125;SDS011;58785;55.566;38.058;2022-07-09T13:16:39;8.57;;;4.90;;
71125;SDS011;58785;55.566;38.058;2022-07-09T13:19:04;10.63;;;6.53;;
71125;SDS011;58785;55.566;38.058;2022-07-09T13:21:30;8.67;;;5.27;;
71125;SDS011;58785;55.566;38.058;2022-07-09T13:23:56;8.38;;;4.97;;
71125;SDS011;58785;55.566;38.058;2022-07-09T13:26:22;8.10;;;5.10;;
71125;SDS011;58785;55.566;38.058;2022-07-09T13:28:48;8.23;;;4.97;;
71125;SDS011;58785;55.566;38.058;2022-07-09T13:31:13;8.32;;;4.50;;
71125;SDS011;58785;55.566;38.058;2022-07-09T13:33:42;6.70;;;4.33;;
71125;SDS011;58785;55.566;38.058;2022-07-09T13:36:08;8.60;;;4.30;;
71125;SDS011;58785;55.566;38.058;2022-07-09T13:38:35;8.75;;;4.93;;
71125;SDS011;58785;55.566;38.058;2022-07-09T13:41:01;8.73;;;4.83;;
71125;SDS011;58785;55.566;38.058;2022-07-09T13:43:29;8.82;;;5.43;;
71125;SDS011;58785;55.566;38.058;2022-07-09T13:45:55;7.95;;;4.95;;
71125;SDS011;58785;55.566;38.058;2022-07-09T13:48:21;8.50;;;5.33;;
71125;SDS011;58785;55.566;38.058;2022-07-09T13:50:47;8.10;;;5.17;;
71125;SDS011;58785;55.566;38.058;2022-07-09T13:53:15;11.73;;;6.90;;
71125;SDS011;58785;55.566;38.058;2022-07-09T13:55:41;7.65;;;4.97;;
71125;SDS011;58785;55.566;38.058;2022-07-09T13:58:06;9.87;;;4.40;;
71125;SDS011;58785;55.566;38.058;2022-07-09T14:00:32;11.82;;;7.57;;
71125;SDS011;58785;55.566;38.058;2022-07-09T14:02:58;10.00;;;5.43;;
71125;SDS011;58785;55.566;38.058;2022-07-09T14:05:24;9.40;;;5.90;;
71125;SDS011;58785;55.566;38.058;2022-07-09T14:07:49;8.25;;;5.30;;
71125;SDS011;58785;55.566;38.058;2022-07-09T14:10:17;9.13;;;4.63;;
71125;SDS011;58785;55.566;38.058;2022-07-09T14:12:43;12.98;;;7.10;;
71125;SDS011;58785;55.566;38.058;2022-07-09T14:15:09;8.57;;;5.50;;
71125;SDS011;58785;55.566;38.058;2022-07-09T14:17:34;8.73;;;5.20;;